Impacts TAF Board
For situational awareness. Not to be used for flight planning purposes.
IDs:

KMSP - Minneapolis-St Paul, MN, US

Issued at 0239 UTC 19 Feb 2019
Updated at 0314 UTC 19 Feb 2019
Potential Impact None Slight Moderate High
Time<<20/04Z 20/05Z 20/06Z 20/07Z 20/08Z 20/09Z 20/10Z 20/11Z 20/12Z 20/13Z 20/14Z 20/15Z 20/16Z
Type PRVL PRVL
VIS >6 >6
CIG 60 60
Cover OVC OVC
FltCat VFR VFR
WX -- --
WDir 150 150
WSpd 5 5
WGst -- --
Raw TAF
KMSP 190239Z 1903/2006 26005KT P6SM SCT150 BKN250
  FM190800 24004KT P6SM SCT250
  FM191500 18004KT P6SM BKN150
  FM192200 15005KT P6SM BKN060 OVC100


METAR Board
Radar Display
Forecast Discussion
For situational awareness. Not to be used for flight planning purposes.